createdAt,value
2022-12-15T00:00:13.261Z,1005.35
2022-12-15T00:01:13.526Z,1005.37
2022-12-15T00:02:13.701Z,1005.36
2022-12-15T00:03:14.165Z,1005.41
2022-12-15T00:04:13.288Z,1005.46
2022-12-15T00:05:13.244Z,1005.44
2022-12-15T00:06:13.335Z,1005.43
2022-12-15T00:07:13.327Z,1005.41
2022-12-15T00:08:13.179Z,1005.39
2022-12-15T00:09:14.563Z,1005.41
2022-12-15T00:10:13.518Z,1005.43
2022-12-15T00:11:13.721Z,1005.38
2022-12-15T00:12:13.761Z,1005.42
2022-12-15T00:13:13.629Z,1005.46
2022-12-15T00:14:13.726Z,1005.44
2022-12-15T00:15:13.675Z,1005.44
2022-12-15T00:16:13.800Z,1005.47
2022-12-15T00:17:13.911Z,1005.50
2022-12-15T00:18:12.776Z,1005.48
2022-12-15T00:19:13.659Z,1005.49
2022-12-15T00:20:13.740Z,1005.52
2022-12-15T00:21:13.749Z,1005.55
2022-12-15T00:22:18.705Z,1005.54
2022-12-15T00:23:13.995Z,1005.55
2022-12-15T00:24:13.068Z,1005.53
2022-12-15T00:25:13.302Z,1005.56
2022-12-15T00:26:13.579Z,1005.54
2022-12-15T00:27:13.601Z,1005.58
2022-12-15T00:28:13.826Z,1005.59
2022-12-15T00:29:14.115Z,1005.58
2022-12-15T00:30:13.363Z,1005.59
2022-12-15T00:31:13.487Z,1005.58
2022-12-15T00:32:13.499Z,1005.57
2022-12-15T00:33:13.582Z,1005.61
2022-12-15T00:34:14.374Z,1005.64
2022-12-15T00:35:13.541Z,1005.63
2022-12-15T00:36:14.078Z,1005.63
2022-12-15T00:37:13.292Z,1005.65
2022-12-15T00:38:13.240Z,1005.70
2022-12-15T00:39:13.279Z,1005.59
2022-12-15T00:40:13.248Z,1005.64
2022-12-15T00:41:13.572Z,1005.64
2022-12-15T00:42:13.816Z,1005.66
2022-12-15T00:43:13.846Z,1005.65
2022-12-15T00:44:18.916Z,1005.65
2022-12-15T00:45:13.488Z,1005.67
2022-12-15T00:46:13.587Z,1005.65
2022-12-15T00:47:13.793Z,1005.65
2022-12-15T00:48:13.656Z,1005.68
2022-12-15T00:49:13.555Z,1005.70
2022-12-15T00:50:13.473Z,1005.66
2022-12-15T00:51:13.454Z,1005.64
2022-12-15T00:52:13.563Z,1005.67
2022-12-15T00:53:13.566Z,1005.66
2022-12-15T00:54:17.855Z,1005.65
2022-12-15T00:55:13.348Z,1005.61
2022-12-15T00:56:13.230Z,1005.63
2022-12-15T00:57:13.194Z,1005.61
2022-12-15T00:58:13.151Z,1005.58
2022-12-15T00:59:13.131Z,1005.55
2022-12-15T01:00:13.065Z,1005.55
2022-12-15T01:01:13.049Z,1005.56
2022-12-15T01:02:13.411Z,1005.50
2022-12-15T01:03:13.720Z,1005.56
2022-12-15T01:04:13.866Z,1005.53
2022-12-15T01:05:12.914Z,1005.52
2022-12-15T01:06:12.866Z,1005.58
2022-12-15T01:07:13.816Z,1005.59
2022-12-15T01:08:14.158Z,1005.63
2022-12-15T01:09:13.043Z,1005.66
2022-12-15T01:10:12.965Z,1005.66
2022-12-15T01:11:13.368Z,1005.72
2022-12-15T01:12:13.354Z,1005.71
2022-12-15T01:13:13.313Z,1005.71
2022-12-15T01:14:13.226Z,1005.71
2022-12-15T01:15:13.361Z,1005.71
2022-12-15T01:16:13.397Z,1005.69
2022-12-15T01:17:13.551Z,1005.69
2022-12-15T01:18:13.489Z,1005.66
2022-12-15T01:19:13.503Z,1005.68
2022-12-15T01:20:13.456Z,1005.69
2022-12-15T01:21:13.385Z,1005.73
2022-12-15T01:22:13.239Z,1005.73
2022-12-15T01:23:13.168Z,1005.71
2022-12-15T01:24:13.519Z,1005.71
2022-12-15T01:25:14.651Z,1005.73
2022-12-15T01:26:13.635Z,1005.72
2022-12-15T01:27:13.531Z,1005.72
2022-12-15T01:28:13.611Z,1005.73
2022-12-15T01:29:13.544Z,1005.77
2022-12-15T01:30:13.674Z,1005.77
2022-12-15T01:31:13.687Z,1005.79
2022-12-15T01:32:13.771Z,1005.79
2022-12-15T01:33:13.746Z,1005.82
2022-12-15T01:34:13.982Z,1005.84
2022-12-15T01:35:12.941Z,1005.85
2022-12-15T01:36:13.022Z,1005.89
2022-12-15T01:37:13.043Z,1005.87
2022-12-15T01:38:13.035Z,1005.92
2022-12-15T01:39:12.966Z,1005.93
2022-12-15T01:40:13.100Z,1005.94
2022-12-15T01:41:13.154Z,1005.87
2022-12-15T01:42:13.045Z,1005.85
2022-12-15T01:43:13.153Z,1005.84
2022-12-15T01:44:13.083Z,1005.83
2022-12-15T01:45:12.985Z,1005.81
2022-12-15T01:46:13.021Z,1005.85
2022-12-15T01:47:13.177Z,1005.85
2022-12-15T01:48:13.223Z,1005.89
2022-12-15T01:49:13.484Z,1005.90
2022-12-15T01:50:13.553Z,1005.91
2022-12-15T01:51:13.457Z,1005.92
2022-12-15T01:52:13.607Z,1005.95
2022-12-15T01:53:13.778Z,1005.97
2022-12-15T01:54:13.749Z,1005.98
2022-12-15T01:55:13.643Z,1005.95
2022-12-15T01:56:14.007Z,1005.98
2022-12-15T01:57:13.229Z,1006.01
2022-12-15T01:58:13.114Z,1005.96
2022-12-15T01:59:13.091Z,1006.01
2022-12-15T02:00:13.023Z,1006.05
2022-12-15T02:01:13.134Z,1006.07
2022-12-15T02:02:13.199Z,1006.11
2022-12-15T02:03:13.213Z,1006.12
2022-12-15T02:04:13.187Z,1006.13
2022-12-15T02:05:13.314Z,1006.15
2022-12-15T02:06:13.314Z,1006.19
2022-12-15T02:07:13.204Z,1006.15
2022-12-15T02:08:13.349Z,1006.14
2022-12-15T02:09:13.432Z,1006.15
2022-12-15T02:10:13.525Z,1006.12
2022-12-15T02:11:13.351Z,1006.16
2022-12-15T02:12:13.628Z,1006.16
2022-12-15T02:13:13.700Z,1006.16
2022-12-15T02:14:13.565Z,1006.19
2022-12-15T02:15:13.763Z,1006.17
2022-12-15T02:16:13.644Z,1006.17
2022-12-15T02:17:13.749Z,1006.17
2022-12-15T02:18:13.671Z,1006.20
2022-12-15T02:19:13.631Z,1006.23
2022-12-15T02:20:13.567Z,1006.19
2022-12-15T02:21:13.583Z,1006.22
2022-12-15T02:22:13.609Z,1006.20
2022-12-15T02:23:14.145Z,1006.24
2022-12-15T02:24:13.255Z,1006.22
2022-12-15T02:25:13.362Z,1006.21
2022-12-15T02:26:13.367Z,1006.23
2022-12-15T02:27:13.840Z,1006.24
2022-12-15T02:28:14.353Z,1006.27
2022-12-15T02:29:13.457Z,1006.28
2022-12-15T02:30:13.675Z,1006.28
2022-12-15T02:31:13.702Z,1006.29
2022-12-15T02:32:13.669Z,1006.31
2022-12-15T02:33:13.523Z,1006.28
2022-12-15T02:34:13.408Z,1006.26
2022-12-15T02:35:13.398Z,1006.28
2022-12-15T02:36:13.374Z,1006.30
2022-12-15T02:37:13.211Z,1006.35
2022-12-15T02:38:13.203Z,1006.36
2022-12-15T02:39:13.091Z,1006.35
2022-12-15T02:40:13.220Z,1006.34
2022-12-15T02:41:13.304Z,1006.35
2022-12-15T02:42:13.261Z,1006.33
2022-12-15T02:43:13.260Z,1006.36
2022-12-15T02:44:13.574Z,1006.35
2022-12-15T02:45:13.545Z,1006.36
2022-12-15T02:46:13.625Z,1006.38
2022-12-15T02:47:13.544Z,1006.36
2022-12-15T02:48:13.674Z,1006.37
2022-12-15T02:49:13.940Z,1006.40
2022-12-15T02:50:12.856Z,1006.40
2022-12-15T02:51:19.051Z,1006.41
2022-12-15T02:52:12.874Z,1006.42
2022-12-15T02:53:13.840Z,1006.41
2022-12-15T02:54:13.951Z,1006.43
2022-12-15T02:55:13.092Z,1006.41
2022-12-15T02:56:13.043Z,1006.41
2022-12-15T02:57:12.976Z,1006.41
2022-12-15T02:58:13.137Z,1006.40
2022-12-15T02:59:13.194Z,1006.39
2022-12-15T03:00:13.132Z,1006.40
2022-12-15T03:01:13.499Z,1006.44
2022-12-15T03:02:13.870Z,1006.45
2022-12-15T03:03:13.060Z,1006.46
2022-12-15T03:04:13.388Z,1006.44
2022-12-15T03:05:13.610Z,1006.49
2022-12-15T03:06:13.624Z,1006.51
2022-12-15T03:07:13.527Z,1006.48
2022-12-15T03:08:13.366Z,1006.50
2022-12-15T03:09:13.494Z,1006.51
2022-12-15T03:10:13.370Z,1006.49
2022-12-15T03:11:13.291Z,1006.56
2022-12-15T03:12:13.195Z,1006.52
2022-12-15T03:13:13.410Z,1006.52
2022-12-15T03:14:13.241Z,1006.56
2022-12-15T03:15:13.532Z,1006.56
2022-12-15T03:16:14.165Z,1006.58
2022-12-15T03:17:13.282Z,1006.63
2022-12-15T03:18:13.416Z,1006.63
2022-12-15T03:19:13.532Z,1006.65
2022-12-15T03:20:13.501Z,1006.63
2022-12-15T03:21:13.643Z,1006.63
2022-12-15T03:22:13.834Z,1006.66
2022-12-15T03:23:13.906Z,1006.66
2022-12-15T03:24:13.082Z,1006.62
2022-12-15T03:25:13.070Z,1006.63
2022-12-15T03:26:13.163Z,1006.65
2022-12-15T03:27:13.167Z,1006.63
2022-12-15T03:28:13.205Z,1006.64
2022-12-15T03:29:13.514Z,1006.66
2022-12-15T03:30:13.525Z,1006.66
2022-12-15T03:31:13.601Z,1006.68
2022-12-15T03:32:13.733Z,1006.65
2022-12-15T03:33:14.295Z,1006.66
2022-12-15T03:34:14.043Z,1006.68
2022-12-15T03:35:13.034Z,1006.69
2022-12-15T03:36:18.228Z,1006.73
2022-12-15T03:37:13.777Z,1006.73
2022-12-15T03:38:13.747Z,1006.74
2022-12-15T03:39:14.463Z,1006.76
2022-12-15T03:40:13.518Z,1006.77
2022-12-15T03:41:13.650Z,1006.72
2022-12-15T03:42:14.204Z,1006.77
2022-12-15T03:43:13.347Z,1006.73
2022-12-15T03:44:13.313Z,1006.76
2022-12-15T03:45:13.242Z,1006.75
2022-12-15T03:46:13.511Z,1006.75
2022-12-15T03:47:13.842Z,1006.77
2022-12-15T03:48:13.879Z,1006.77
2022-12-15T03:49:14.005Z,1006.78
2022-12-15T03:50:13.072Z,1006.77
2022-12-15T03:51:18.434Z,1006.80
2022-12-15T03:52:14.107Z,1006.79
2022-12-15T03:53:13.149Z,1006.78
2022-12-15T03:54:14.529Z,1006.78
2022-12-15T03:55:13.922Z,1006.79
2022-12-15T03:56:13.115Z,1006.82
2022-12-15T03:57:13.321Z,1006.84
2022-12-15T03:58:13.458Z,1006.82
2022-12-15T03:59:13.435Z,1006.86
2022-12-15T04:00:13.332Z,1006.87
2022-12-15T04:01:13.346Z,1006.89
2022-12-15T04:02:13.698Z,1006.84
2022-12-15T04:03:13.010Z,1006.81
2022-12-15T04:04:13.054Z,1006.83
2022-12-15T04:05:13.060Z,1006.83
2022-12-15T04:06:13.304Z,1006.81
2022-12-15T04:07:13.219Z,1006.82
2022-12-15T04:08:15.180Z,1006.80
2022-12-15T04:09:13.208Z,1006.79
2022-12-15T04:10:13.374Z,1006.80
2022-12-15T04:11:13.465Z,1006.77
2022-12-15T04:12:13.344Z,1006.76
2022-12-15T04:13:13.619Z,1006.78
2022-12-15T04:14:13.765Z,1006.78
2022-12-15T04:15:13.819Z,1006.78
2022-12-15T04:16:19.530Z,1006.79
2022-12-15T04:17:13.120Z,1006.80
2022-12-15T04:18:13.056Z,1006.82
2022-12-15T04:19:13.193Z,1006.74
2022-12-15T04:20:13.269Z,1006.74
2022-12-15T04:21:13.348Z,1006.73
2022-12-15T04:22:17.802Z,1006.71
2022-12-15T04:23:13.104Z,1006.70
2022-12-15T04:24:13.178Z,1006.70
2022-12-15T04:25:13.466Z,1006.71
2022-12-15T04:26:13.332Z,1006.70
2022-12-15T04:27:13.264Z,1006.72
2022-12-15T04:28:13.579Z,1006.73
2022-12-15T04:29:13.650Z,1006.73
2022-12-15T04:30:31.983Z,1006.74
2022-12-15T04:31:13.026Z,1006.74
2022-12-15T04:32:13.134Z,1006.74
2022-12-15T04:33:13.058Z,1006.75
2022-12-15T04:34:13.242Z,1006.73
2022-12-15T04:35:13.152Z,1006.73
2022-12-15T04:36:12.972Z,1006.76
2022-12-15T04:37:28.886Z,1006.74
2022-12-15T04:38:12.812Z,1006.73
2022-12-15T04:39:13.948Z,1006.73
2022-12-15T04:40:12.932Z,1006.72
2022-12-15T04:41:12.920Z,1006.72
2022-12-15T04:42:13.542Z,1006.74
2022-12-15T04:43:13.438Z,1006.77
2022-12-15T04:44:13.358Z,1006.79
2022-12-15T04:45:18.609Z,1006.79
2022-12-15T04:46:13.482Z,1006.84
2022-12-15T04:47:26.305Z,1006.83
2022-12-15T04:48:13.167Z,1006.83
2022-12-15T04:49:13.220Z,1006.88
2022-12-15T04:50:13.202Z,1006.89
2022-12-15T04:51:35.449Z,1006.92
2022-12-15T04:52:13.789Z,1006.89
2022-12-15T04:53:13.852Z,1006.92
2022-12-15T04:54:41.072Z,1006.90
2022-12-15T04:55:13.312Z,1006.89
2022-12-15T04:56:18.219Z,1006.94
2022-12-15T04:57:14.460Z,1006.93
2022-12-15T04:58:13.623Z,1006.95
2022-12-15T04:59:14.389Z,1006.96
2022-12-15T05:00:13.539Z,1006.97
2022-12-15T05:01:13.523Z,1006.94
2022-12-15T05:02:13.698Z,1006.94
2022-12-15T05:03:18.109Z,1006.94
2022-12-15T05:04:14.725Z,1006.90
2022-12-15T05:05:13.755Z,1006.93
2022-12-15T05:06:13.879Z,1006.92
2022-12-15T05:07:13.538Z,1006.92
2022-12-15T05:08:13.907Z,1006.88
2022-12-15T05:09:13.178Z,1006.88
2022-12-15T05:10:15.263Z,1006.91
2022-12-15T05:11:13.408Z,1006.95
2022-12-15T05:12:13.927Z,1006.94
2022-12-15T05:13:13.162Z,1006.94
2022-12-15T05:14:13.160Z,1006.93
2022-12-15T05:15:13.387Z,1006.96
2022-12-15T05:16:15.069Z,1006.96
2022-12-15T05:17:13.706Z,1006.97
2022-12-15T05:18:15.496Z,1007.01
2022-12-15T05:19:13.910Z,1007.00
2022-12-15T05:21:13.023Z,1007.01
2022-12-15T05:22:12.962Z,1007.03
2022-12-15T05:23:12.984Z,1007.01
2022-12-15T05:24:13.326Z,1007.05
2022-12-15T05:26:19.139Z,1007.02
2022-12-15T05:27:13.497Z,1007.03
2022-12-15T05:28:13.587Z,1007.02
2022-12-15T05:29:13.496Z,1007.02
2022-12-15T05:30:13.798Z,1007.03
2022-12-15T05:31:20.035Z,1007.03
2022-12-15T05:33:12.900Z,1007.07
2022-12-15T05:34:12.848Z,1007.11
2022-12-15T05:35:13.978Z,1007.13
2022-12-15T05:36:13.146Z,1007.14
2022-12-15T05:37:13.509Z,1007.14
2022-12-15T05:38:36.110Z,1007.16
2022-12-15T05:39:13.349Z,1007.17
2022-12-15T05:40:13.418Z,1007.18
2022-12-15T05:41:18.648Z,1007.17
2022-12-15T05:42:14.248Z,1007.17
2022-12-15T05:43:13.502Z,1007.20
2022-12-15T05:44:13.753Z,1007.17
2022-12-15T05:45:18.973Z,1007.19
2022-12-15T05:46:13.125Z,1007.18
2022-12-15T05:47:13.464Z,1007.17
2022-12-15T05:48:13.419Z,1007.17
2022-12-15T05:49:13.340Z,1007.20
2022-12-15T05:50:13.327Z,1007.15
2022-12-15T05:51:13.336Z,1007.16
2022-12-15T05:52:13.739Z,1007.19
2022-12-15T05:53:13.955Z,1007.17
2022-12-15T05:54:13.207Z,1007.18
2022-12-15T05:55:13.510Z,1007.17
2022-12-15T05:56:13.494Z,1007.21
2022-12-15T05:57:13.471Z,1007.24
2022-12-15T05:58:13.421Z,1007.27
2022-12-15T05:59:13.345Z,1007.30
2022-12-15T06:00:13.539Z,1007.33
2022-12-15T06:01:13.553Z,1007.30
2022-12-15T06:02:13.846Z,1007.32
2022-12-15T06:03:13.048Z,1007.31
2022-12-15T06:04:13.369Z,1007.30
2022-12-15T06:05:13.580Z,1007.30
2022-12-15T06:06:14.856Z,1007.33
2022-12-15T06:07:13.841Z,1007.39
2022-12-15T06:08:19.062Z,1007.38
2022-12-15T06:09:13.104Z,1007.40
2022-12-15T06:10:13.098Z,1007.44
2022-12-15T06:11:12.986Z,1007.45
2022-12-15T06:12:12.864Z,1007.41
2022-12-15T06:13:14.188Z,1007.39
2022-12-15T06:14:13.321Z,1007.36
2022-12-15T06:15:13.282Z,1007.38
2022-12-15T06:16:13.261Z,1007.36
2022-12-15T06:17:13.457Z,1007.37
2022-12-15T06:18:13.439Z,1007.39
2022-12-15T06:19:20.681Z,1007.38
2022-12-15T06:20:13.674Z,1007.41
2022-12-15T06:21:13.621Z,1007.39
2022-12-15T06:22:18.615Z,1007.40
2022-12-15T06:23:13.777Z,1007.44
2022-12-15T06:24:13.965Z,1007.46
2022-12-15T06:25:12.940Z,1007.47
2022-12-15T06:26:13.187Z,1007.45
2022-12-15T06:27:13.279Z,1007.47
2022-12-15T06:28:13.376Z,1007.46
2022-12-15T06:29:13.439Z,1007.46
2022-12-15T06:30:13.557Z,1007.45
2022-12-15T06:31:13.557Z,1007.43
2022-12-15T06:32:57.875Z,1007.45
2022-12-15T06:33:13.756Z,1007.47
2022-12-15T06:34:13.700Z,1007.43
2022-12-15T06:35:13.700Z,1007.47
2022-12-15T06:36:13.600Z,1007.46
2022-12-15T06:37:13.713Z,1007.48
2022-12-15T06:38:13.739Z,1007.49
2022-12-15T06:39:14.298Z,1007.56
2022-12-15T06:40:13.361Z,1007.56
2022-12-15T06:41:13.444Z,1007.59
2022-12-15T06:42:13.459Z,1007.57
2022-12-15T06:43:13.392Z,1007.56
2022-12-15T06:44:13.495Z,1007.55
2022-12-15T06:45:13.558Z,1007.58
2022-12-15T06:46:13.632Z,1007.52
2022-12-15T06:47:14.144Z,1007.52
2022-12-15T06:48:13.129Z,1007.49
2022-12-15T06:49:13.028Z,1007.48
2022-12-15T06:50:12.975Z,1007.48
2022-12-15T06:51:16.747Z,1007.45
2022-12-15T06:52:13.530Z,1007.50
2022-12-15T06:53:13.409Z,1007.48
2022-12-15T06:54:13.379Z,1007.47
2022-12-15T06:55:13.448Z,1007.49
2022-12-15T06:56:13.473Z,1007.49
2022-12-15T06:57:13.700Z,1007.48
2022-12-15T06:58:13.687Z,1007.50
2022-12-15T06:59:13.695Z,1007.49
2022-12-15T07:00:13.990Z,1007.48
2022-12-15T07:01:12.991Z,1007.53
2022-12-15T07:02:13.177Z,1007.55
2022-12-15T07:03:13.485Z,1007.57
2022-12-15T07:04:13.739Z,1007.57
2022-12-15T07:05:13.980Z,1007.59
2022-12-15T07:06:13.032Z,1007.63
2022-12-15T07:07:13.151Z,1007.64
2022-12-15T07:08:13.106Z,1007.63
2022-12-15T07:09:13.202Z,1007.60
2022-12-15T07:10:23.510Z,1007.63
2022-12-15T07:11:13.437Z,1007.61
2022-12-15T07:13:13.222Z,1007.58
2022-12-15T07:14:13.183Z,1007.62
2022-12-15T07:15:18.081Z,1007.64
2022-12-15T07:16:13.432Z,1007.66
2022-12-15T07:17:13.631Z,1007.66
2022-12-15T07:18:13.705Z,1007.69
2022-12-15T07:19:13.849Z,1007.68
2022-12-15T07:20:13.936Z,1007.74
2022-12-15T07:21:13.125Z,1007.72
2022-12-15T07:22:13.077Z,1007.71
2022-12-15T07:23:13.184Z,1007.74
2022-12-15T07:24:13.211Z,1007.74
2022-12-15T07:25:13.171Z,1007.77
2022-12-15T07:26:13.176Z,1007.73
2022-12-15T07:27:13.384Z,1007.74
2022-12-15T07:28:13.680Z,1007.75
2022-12-15T07:29:18.140Z,1007.73
2022-12-15T07:30:35.279Z,1007.76
2022-12-15T07:31:13.881Z,1007.78
2022-12-15T07:32:13.366Z,1007.79
2022-12-15T07:33:13.362Z,1007.78
2022-12-15T07:34:13.208Z,1007.81
2022-12-15T07:35:13.139Z,1007.80
2022-12-15T07:36:13.080Z,1007.80
2022-12-15T07:37:12.921Z,1007.83
2022-12-15T07:38:13.335Z,1007.86
2022-12-15T07:39:13.534Z,1007.90
2022-12-15T07:40:13.891Z,1007.90
2022-12-15T07:41:12.987Z,1007.93
2022-12-15T07:42:13.056Z,1007.95
2022-12-15T07:43:13.067Z,1007.95
2022-12-15T07:44:13.331Z,1007.90
2022-12-15T07:46:13.650Z,1007.90
2022-12-15T07:47:14.421Z,1007.90
2022-12-15T07:48:38.517Z,1007.94
2022-12-15T07:49:20.545Z,1007.95
2022-12-15T07:50:13.868Z,1007.94
2022-12-15T07:51:19.356Z,1007.97
2022-12-15T07:52:45.336Z,1008.03
2022-12-15T07:53:13.239Z,1008.03
2022-12-15T07:54:24.545Z,1008.06
2022-12-15T07:55:13.576Z,1008.04
2022-12-15T07:56:17.761Z,1008.07
2022-12-15T07:57:13.741Z,1008.10
2022-12-15T07:58:36.166Z,1008.15
2022-12-15T07:59:13.289Z,1008.13
2022-12-15T08:00:13.589Z,1008.11
2022-12-15T08:01:13.554Z,1008.14
2022-12-15T08:02:43.859Z,1008.15
2022-12-15T08:03:13.803Z,1008.14
2022-12-15T08:04:14.137Z,1008.16
2022-12-15T08:05:13.233Z,1008.16
2022-12-15T08:06:13.544Z,1008.17
2022-12-15T08:07:13.646Z,1008.17
2022-12-15T08:08:15.406Z,1008.16
2022-12-15T08:09:13.862Z,1008.17
2022-12-15T08:10:13.859Z,1008.21
2022-12-15T08:11:13.781Z,1008.19
2022-12-15T08:12:13.684Z,1008.17
2022-12-15T08:13:31.424Z,1008.16
2022-12-15T08:14:17.630Z,1008.13
2022-12-15T08:15:13.267Z,1008.16
2022-12-15T08:16:13.200Z,1008.17
2022-12-15T08:17:23.152Z,1008.18
2022-12-15T08:18:13.287Z,1008.21
2022-12-15T08:19:31.206Z,1008.22
2022-12-15T08:20:13.168Z,1008.19
2022-12-15T08:21:13.132Z,1008.22
2022-12-15T08:22:13.374Z,1008.25
2022-12-15T08:23:13.562Z,1008.28
2022-12-15T08:24:13.949Z,1008.28
2022-12-15T08:25:37.857Z,1008.26
2022-12-15T08:26:13.779Z,1008.27
2022-12-15T08:27:32.669Z,1008.29
2022-12-15T08:28:13.793Z,1008.30
2022-12-15T08:29:50.153Z,1008.30
2022-12-15T08:30:13.933Z,1008.32
2022-12-15T08:31:18.039Z,1008.34
2022-12-15T08:32:13.169Z,1008.34
2022-12-15T08:33:13.160Z,1008.37
2022-12-15T08:35:39.036Z,1008.30
2022-12-15T08:36:45.875Z,1008.29
2022-12-15T08:37:14.213Z,1008.29
2022-12-15T08:38:13.228Z,1008.31
2022-12-15T08:39:13.375Z,1008.31
2022-12-15T08:40:13.584Z,1008.32
2022-12-15T08:41:20.265Z,1008.35
2022-12-15T08:42:13.804Z,1008.35
2022-12-15T08:43:13.957Z,1008.34
2022-12-15T08:44:13.814Z,1008.35
2022-12-15T08:45:13.892Z,1008.37
2022-12-15T08:46:13.209Z,1008.36
2022-12-15T08:47:13.522Z,1008.37
2022-12-15T08:48:13.430Z,1008.34
2022-12-15T08:49:23.587Z,1008.35
2022-12-15T08:50:43.239Z,1008.34
2022-12-15T08:51:13.835Z,1008.38
2022-12-15T08:52:14.144Z,1008.37
2022-12-15T08:53:39.144Z,1008.34
2022-12-15T08:54:13.479Z,1008.34
2022-12-15T08:55:16.781Z,1008.34
2022-12-15T08:56:14.042Z,1008.37
2022-12-15T08:57:13.257Z,1008.36
2022-12-15T08:58:13.319Z,1008.36
2022-12-15T08:59:13.270Z,1008.38
2022-12-15T09:00:13.281Z,1008.38
2022-12-15T09:01:17.478Z,1008.42
2022-12-15T09:02:13.490Z,1008.44
2022-12-15T09:03:14.462Z,1008.45
2022-12-15T09:04:13.681Z,1008.46
2022-12-15T09:05:13.800Z,1008.46
2022-12-15T09:06:14.175Z,1008.46
2022-12-15T09:07:14.012Z,1008.46
2022-12-15T09:08:13.130Z,1008.47
2022-12-15T09:09:13.173Z,1008.48
2022-12-15T09:10:13.079Z,1008.48
2022-12-15T09:11:13.095Z,1008.46
2022-12-15T09:12:13.736Z,1008.45
2022-12-15T09:13:14.054Z,1008.49
2022-12-15T09:14:13.141Z,1008.47
2022-12-15T09:15:13.315Z,1008.49
2022-12-15T09:16:13.849Z,1008.44
2022-12-15T09:17:14.252Z,1008.48
2022-12-15T09:18:13.204Z,1008.45
2022-12-15T09:19:13.171Z,1008.45
2022-12-15T09:20:17.492Z,1008.48
2022-12-15T09:21:12.832Z,1008.47
2022-12-15T09:22:14.215Z,1008.50
2022-12-15T09:23:13.100Z,1008.51
2022-12-15T09:24:17.699Z,1008.52
2022-12-15T09:25:13.329Z,1008.53
2022-12-15T09:26:13.559Z,1008.57
2022-12-15T09:27:13.794Z,1008.56
2022-12-15T09:28:13.783Z,1008.57
2022-12-15T09:29:14.155Z,1008.56
2022-12-15T09:30:13.496Z,1008.63
2022-12-15T09:31:13.459Z,1008.59
2022-12-15T09:32:14.395Z,1008.64
2022-12-15T09:33:13.601Z,1008.61
2022-12-15T09:34:13.575Z,1008.62
2022-12-15T09:35:13.723Z,1008.67
2022-12-15T09:36:14.264Z,1008.71
2022-12-15T09:37:13.562Z,1008.71
2022-12-15T09:38:13.530Z,1008.74
2022-12-15T09:39:13.552Z,1008.79
2022-12-15T09:40:13.756Z,1008.86
2022-12-15T09:41:13.751Z,1008.84
2022-12-15T09:42:13.638Z,1008.83
2022-12-15T09:43:33.916Z,1008.87
2022-12-15T09:44:12.993Z,1008.92
2022-12-15T09:45:12.979Z,1008.91
2022-12-15T09:46:12.985Z,1008.94
2022-12-15T09:47:13.019Z,1008.99
2022-12-15T09:48:13.215Z,1008.98
2022-12-15T09:49:13.343Z,1009.01
2022-12-15T09:50:13.746Z,1009.03
2022-12-15T09:51:13.688Z,1009.06
2022-12-15T09:52:14.660Z,1009.08
2022-12-15T09:53:45.688Z,1009.12
2022-12-15T09:54:13.542Z,1009.13
2022-12-15T09:55:13.786Z,1009.13
2022-12-15T09:56:12.850Z,1009.15
2022-12-15T09:57:14.012Z,1009.13
2022-12-15T09:58:12.938Z,1009.09
2022-12-15T09:59:12.967Z,1009.11
2022-12-15T10:00:12.909Z,1009.14
2022-12-15T10:01:13.160Z,1009.10
2022-12-15T10:02:13.375Z,1009.11
2022-12-15T10:03:13.920Z,1009.15
2022-12-15T10:04:13.010Z,1009.12
2022-12-15T10:05:13.347Z,1009.08
2022-12-15T10:06:18.970Z,1009.13
2022-12-15T10:07:13.031Z,1009.10
2022-12-15T10:08:13.363Z,1009.10
2022-12-15T10:09:13.307Z,1009.15
2022-12-15T10:10:13.381Z,1009.16
2022-12-15T10:11:14.557Z,1009.19
2022-12-15T10:12:13.671Z,1009.22
2022-12-15T10:13:14.233Z,1009.21
2022-12-15T10:14:13.476Z,1009.22
2022-12-15T10:15:13.561Z,1009.26
2022-12-15T10:16:13.467Z,1009.24
2022-12-15T10:17:13.520Z,1009.24
2022-12-15T10:18:13.784Z,1009.23
2022-12-15T10:19:13.857Z,1009.27
2022-12-15T10:20:13.804Z,1009.31
2022-12-15T10:21:13.769Z,1009.29
2022-12-15T10:22:13.769Z,1009.30
2022-12-15T10:23:13.747Z,1009.29
2022-12-15T10:24:13.719Z,1009.22
2022-12-15T10:25:13.641Z,1009.23
2022-12-15T10:26:13.695Z,1009.26
2022-12-15T10:27:13.666Z,1009.27
2022-12-15T10:28:13.743Z,1009.26
2022-12-15T10:29:13.707Z,1009.24
2022-12-15T10:30:14.235Z,1009.25
2022-12-15T10:31:13.356Z,1009.29
2022-12-15T10:32:13.420Z,1009.24
2022-12-15T10:33:13.665Z,1009.27
2022-12-15T10:34:13.853Z,1009.27
2022-12-15T10:35:14.188Z,1009.28
2022-12-15T10:36:13.321Z,1009.26
2022-12-15T10:37:13.596Z,1009.24
2022-12-15T10:38:13.537Z,1009.22
2022-12-15T10:39:16.219Z,1009.24
2022-12-15T10:40:13.637Z,1009.23
2022-12-15T10:41:13.800Z,1009.28
2022-12-15T10:42:13.933Z,1009.28
2022-12-15T10:43:13.031Z,1009.28
2022-12-15T10:44:13.010Z,1009.28
2022-12-15T10:45:13.032Z,1009.28
2022-12-15T10:46:13.251Z,1009.27
2022-12-15T10:47:13.515Z,1009.28
2022-12-15T10:48:13.397Z,1009.30
2022-12-15T10:49:13.388Z,1009.32
2022-12-15T10:50:25.019Z,1009.32
2022-12-15T10:51:13.357Z,1009.34
2022-12-15T10:52:13.276Z,1009.33
2022-12-15T10:53:13.270Z,1009.32
2022-12-15T10:54:13.298Z,1009.31
2022-12-15T10:55:13.364Z,1009.34
2022-12-15T10:56:13.393Z,1009.31
2022-12-15T10:57:13.297Z,1009.31
2022-12-15T10:58:13.378Z,1009.26
2022-12-15T10:59:13.355Z,1009.24
2022-12-15T11:00:13.339Z,1009.27
2022-12-15T11:01:13.343Z,1009.24
2022-12-15T11:02:18.011Z,1009.23
2022-12-15T11:03:13.979Z,1009.26
2022-12-15T11:04:33.358Z,1009.22
2022-12-15T11:05:13.376Z,1009.20
2022-12-15T11:06:13.402Z,1009.19
2022-12-15T11:07:13.318Z,1009.20
2022-12-15T11:08:13.227Z,1009.22
2022-12-15T11:09:13.166Z,1009.13
2022-12-15T11:10:13.152Z,1009.12
2022-12-15T11:11:13.135Z,1009.14
2022-12-15T11:12:13.187Z,1009.11
2022-12-15T11:13:13.182Z,1009.13
2022-12-15T11:14:13.033Z,1009.15
2022-12-15T11:15:12.970Z,1009.12
2022-12-15T11:16:13.113Z,1009.13
2022-12-15T11:17:13.425Z,1009.10
2022-12-15T11:18:13.577Z,1009.11
2022-12-15T11:19:13.473Z,1009.10
2022-12-15T11:20:13.382Z,1009.07
2022-12-15T11:21:13.389Z,1009.09
2022-12-15T11:22:13.530Z,1009.04
2022-12-15T11:23:13.532Z,1009.01
2022-12-15T11:24:13.473Z,1009.06
2022-12-15T11:25:13.414Z,1009.07
2022-12-15T11:26:13.566Z,1009.07
2022-12-15T11:27:13.593Z,1009.14
2022-12-15T11:28:13.575Z,1009.12
2022-12-15T11:29:13.638Z,1009.07
2022-12-15T11:30:13.608Z,1009.10
2022-12-15T11:31:13.571Z,1009.08
2022-12-15T11:32:13.698Z,1009.10
2022-12-15T11:33:13.607Z,1009.06
2022-12-15T11:34:14.056Z,1009.05
2022-12-15T11:35:13.115Z,1009.08
2022-12-15T11:36:13.150Z,1009.04
2022-12-15T11:37:13.331Z,1009.00
2022-12-15T11:38:13.237Z,1009.06
2022-12-15T11:39:13.383Z,1009.07
2022-12-15T11:40:13.390Z,1009.08
2022-12-15T11:41:13.283Z,1009.14
2022-12-15T11:42:13.313Z,1009.09
2022-12-15T11:43:13.446Z,1009.12
2022-12-15T11:44:13.444Z,1009.11
2022-12-15T11:45:13.368Z,1009.08
2022-12-15T11:46:13.379Z,1009.07
2022-12-15T11:47:13.314Z,1009.05
2022-12-15T11:48:13.349Z,1009.05
2022-12-15T11:49:13.579Z,1009.07
2022-12-15T11:50:13.571Z,1009.06
2022-12-15T11:51:13.923Z,1009.05
2022-12-15T11:52:12.885Z,1009.06
2022-12-15T11:53:15.384Z,1009.07
2022-12-15T11:54:13.239Z,1009.03
2022-12-15T11:55:13.173Z,1009.02
2022-12-15T11:56:13.267Z,1008.97
2022-12-15T11:57:13.268Z,1008.98
2022-12-15T11:58:13.143Z,1008.97
2022-12-15T11:59:13.038Z,1008.95
2022-12-15T12:00:13.146Z,1008.95
2022-12-15T12:01:13.259Z,1008.94
2022-12-15T12:02:13.243Z,1008.96
2022-12-15T12:03:13.288Z,1008.94
2022-12-15T12:04:13.223Z,1008.88
2022-12-15T12:05:13.191Z,1008.93
2022-12-15T12:06:13.518Z,1008.88
2022-12-15T12:07:13.993Z,1008.86
2022-12-15T12:08:13.192Z,1008.85
2022-12-15T12:09:13.050Z,1008.82
2022-12-15T12:10:13.019Z,1008.82
2022-12-15T12:11:14.030Z,1008.80